< < Back
Terminal Aerodrome Forecast


Current Version              Previous Versions:   1  2  3  4  5  6  7  8  9  

Terminal Aerodrome Forecast

883
FTUS42 KGSP 300842 AAB
TAFAVL
TAF AMD
KAVL 300842Z 3009/3106 34016G25KT P6SM FEW015 OVC025
     FM301400 33014G29KT P6SM BKN040
     FM310100 34009KT P6SM FEW250=



Latest METAR

301
SAUS70 KWBC 310000
MTRAVL
METAR KAVL 302354Z 36010KT 10SM CLR 01/M10 A3024 RMK AO2 SLP251
T00061100 10039 20006 53014


USA.gov is the U.S. government's official web portal to all federal, state and local government web resources and services.